createdAt,value
2022-11-06T00:01:09.872Z,101128.41
2022-11-06T00:03:37.126Z,101119.38
2022-11-06T00:06:30.801Z,101114.03
2022-11-06T00:08:59.910Z,101101.44
2022-11-06T00:11:26.665Z,101108.22
2022-11-06T00:13:53.156Z,101094.81
2022-11-06T00:16:20.538Z,101104.75
2022-11-06T00:18:47.678Z,101097.09
2022-11-06T00:21:28.564Z,101101.25
2022-11-06T00:23:57.017Z,101092.78
2022-11-06T00:26:25.862Z,101055.94
2022-11-06T00:28:53.159Z,101093.88
2022-11-06T00:31:22.316Z,101092.00
2022-11-06T00:33:49.008Z,101095.72
2022-11-06T00:36:18.275Z,101095.72
2022-11-06T00:38:45.651Z,101080.78
2022-11-06T00:41:15.187Z,101095.34
2022-11-06T00:43:42.231Z,101076.28
2022-11-06T00:46:10.796Z,101094.50
2022-11-06T00:48:38.011Z,101096.75
2022-11-06T00:51:10.134Z,101106.13
2022-11-06T00:53:37.379Z,101093.63
2022-11-06T00:56:09.810Z,101084.13
2022-11-06T00:58:36.685Z,101093.69
2022-11-06T01:01:13.984Z,101099.50
2022-11-06T01:03:41.829Z,101097.84
2022-11-06T01:06:17.175Z,101076.50
2022-11-06T01:08:44.854Z,101092.69
2022-11-06T01:11:46.564Z,101077.78
2022-11-06T01:14:18.120Z,101097.38
2022-11-06T01:16:45.323Z,101095.47
2022-11-06T01:19:14.651Z,101090.75
2022-11-06T01:21:43.706Z,101086.44
2022-11-06T01:24:13.224Z,101070.06
2022-11-06T01:26:53.307Z,101084.94
2022-11-06T01:29:26.533Z,101083.50
2022-11-06T01:31:52.933Z,101078.41
2022-11-06T01:34:19.351Z,101077.78
2022-11-06T01:36:46.745Z,101068.84
2022-11-06T01:39:15.431Z,101079.59
2022-11-06T01:41:50.866Z,101086.44
2022-11-06T01:44:35.311Z,101076.94
2022-11-06T01:47:04.744Z,101068.13
2022-11-06T01:49:37.505Z,101066.63
2022-11-06T01:52:10.130Z,101051.38
2022-11-06T01:54:39.899Z,101062.31
2022-11-06T01:57:07.409Z,101074.25
2022-11-06T01:59:37.150Z,101046.41
2022-11-06T02:02:04.351Z,101040.59
2022-11-06T02:04:40.583Z,101057.16
2022-11-06T02:07:08.058Z,101053.28
2022-11-06T02:09:35.028Z,101054.59
2022-11-06T02:12:22.428Z,101062.97
2022-11-06T02:14:58.470Z,101056.34
2022-11-06T02:17:41.553Z,101055.31
2022-11-06T02:20:17.364Z,101060.50
2022-11-06T02:23:05.797Z,101049.16
2022-11-06T02:25:46.229Z,101058.16
2022-11-06T02:28:27.937Z,101071.16
2022-11-06T02:30:58.323Z,101061.47
2022-11-06T02:33:36.530Z,101044.09
2022-11-06T02:36:13.297Z,101055.22
2022-11-06T02:38:54.917Z,101046.59
2022-11-06T02:41:28.439Z,101045.19
2022-11-06T02:43:56.685Z,101044.19
2022-11-06T02:46:37.360Z,101039.84
2022-11-06T02:49:08.758Z,101032.69
2022-11-06T02:51:40.140Z,101026.69
2022-11-06T02:54:08.311Z,101018.22
2022-11-06T02:56:39.613Z,101030.00
2022-11-06T02:59:11.894Z,101018.22
2022-11-06T03:01:52.462Z,101038.84
2022-11-06T03:04:26.143Z,101007.75
2022-11-06T03:07:00.924Z,101040.31
2022-11-06T03:09:31.644Z,101035.16
2022-11-06T03:12:05.600Z,101037.00
2022-11-06T03:14:46.353Z,101040.03
2022-11-06T03:17:22.877Z,101024.84
2022-11-06T03:20:24.192Z,101020.25
2022-11-06T03:22:57.531Z,101021.53
2022-11-06T03:25:35.051Z,101024.22
2022-11-06T03:28:10.569Z,101019.72
2022-11-06T03:30:42.998Z,101025.66
2022-11-06T03:33:33.545Z,101032.22
2022-11-06T03:36:18.406Z,101019.91
2022-11-06T03:38:52.869Z,101009.66
2022-11-06T03:41:42.233Z,101002.66
2022-11-06T03:44:12.786Z,100983.81
2022-11-06T03:46:46.406Z,100984.53
2022-11-06T03:49:21.904Z,100994.84
2022-11-06T03:51:57.308Z,100980.41
2022-11-06T03:54:27.713Z,100958.50
2022-11-06T03:57:11.372Z,100982.53
2022-11-06T03:59:48.584Z,100978.38
2022-11-06T04:02:17.928Z,100987.22
2022-11-06T04:04:52.542Z,100968.25
2022-11-06T04:07:22.437Z,100970.38
2022-11-06T04:10:12.470Z,100969.34
2022-11-06T04:13:00.054Z,100961.31
2022-11-06T04:15:31.294Z,100957.41
2022-11-06T04:17:57.701Z,100933.50
2022-11-06T04:20:43.262Z,100953.16
2022-11-06T04:23:20.057Z,100950.91
2022-11-06T04:26:18.653Z,100938.34
2022-11-06T04:29:11.070Z,100943.47
2022-11-06T04:31:48.876Z,100945.41
2022-11-06T04:34:42.801Z,100942.47
2022-11-06T04:37:30.372Z,100954.41
2022-11-06T04:40:06.537Z,100942.28
2022-11-06T04:42:42.507Z,100924.06
2022-11-06T04:45:21.264Z,100913.31
2022-11-06T04:47:49.519Z,100947.06
2022-11-06T04:50:20.561Z,100938.78
2022-11-06T04:52:48.058Z,100946.41
2022-11-06T04:55:14.428Z,100925.56
2022-11-06T04:57:40.874Z,100928.09
2022-11-06T05:00:08.108Z,100925.63
2022-11-06T05:02:34.760Z,100925.16
2022-11-06T05:05:01.147Z,100923.78
2022-11-06T05:07:27.527Z,100922.13
2022-11-06T05:09:53.969Z,100925.16
2022-11-06T05:12:20.529Z,100905.59
2022-11-06T05:14:46.949Z,100918.00
2022-11-06T05:17:13.410Z,100912.47
2022-11-06T05:19:39.855Z,100908.78
2022-11-06T05:22:24.945Z,100895.34
2022-11-06T05:24:51.382Z,100898.09
2022-11-06T05:27:17.879Z,100898.75
2022-11-06T05:29:44.553Z,100898.56
2022-11-06T05:32:10.969Z,100879.22
2022-11-06T05:34:37.412Z,100891.13
2022-11-06T05:37:03.916Z,100892.75
2022-11-06T05:39:30.356Z,100873.56
2022-11-06T05:41:56.749Z,100881.09
2022-11-06T05:44:23.210Z,100885.41
2022-11-06T05:46:50.342Z,100882.28
2022-11-06T05:49:18.247Z,100874.72
2022-11-06T05:51:45.044Z,100874.91
2022-11-06T05:54:11.422Z,100872.44
2022-11-06T05:56:37.877Z,100864.22
2022-11-06T05:59:04.489Z,100868.34
2022-11-06T06:01:31.017Z,100870.41
2022-11-06T06:03:57.612Z,100861.75
2022-11-06T06:06:24.103Z,100861.13
2022-11-06T06:08:50.486Z,100849.78
2022-11-06T06:11:16.945Z,100846.47
2022-11-06T06:13:43.450Z,100856.59
2022-11-06T06:16:09.936Z,100850.44
2022-11-06T06:18:36.387Z,100846.66
2022-11-06T06:21:02.799Z,100851.47
2022-11-06T06:23:29.209Z,100852.66
2022-11-06T06:25:56.810Z,100853.03
2022-11-06T06:28:23.228Z,100850.38
2022-11-06T06:30:49.635Z,100846.88
2022-11-06T06:33:16.012Z,100856.34
2022-11-06T06:35:42.372Z,100846.88
2022-11-06T06:38:08.838Z,100846.66
2022-11-06T06:40:35.270Z,100834.28
2022-11-06T06:43:01.635Z,100831.22
2022-11-06T06:45:28.071Z,100821.41
2022-11-06T06:47:54.544Z,100832.50
2022-11-06T06:50:21.061Z,100831.88
2022-11-06T06:52:47.634Z,100830.84
2022-11-06T06:55:14.234Z,100834.16
2022-11-06T06:57:40.694Z,100828.38
2022-11-06T07:00:07.941Z,100830.84
2022-11-06T07:02:34.366Z,100826.91
2022-11-06T07:05:00.778Z,100835.81
2022-11-06T07:07:27.201Z,100825.91
2022-11-06T07:09:53.620Z,100834.53
2022-11-06T07:12:19.994Z,100846.22
2022-11-06T07:14:46.370Z,100836.75
2022-11-06T07:17:12.908Z,100836.56
2022-11-06T07:19:39.325Z,100838.22
2022-11-06T07:22:05.775Z,100844.38
2022-11-06T07:24:32.190Z,100843.94
2022-11-06T07:26:58.632Z,100842.75
2022-11-06T07:29:25.028Z,100848.88
2022-11-06T07:31:51.416Z,100844.84
2022-11-06T07:34:17.830Z,100842.38
2022-11-06T07:36:44.271Z,100833.53
2022-11-06T07:39:10.797Z,100843.63
2022-11-06T07:41:37.860Z,100846.94
2022-11-06T07:44:05.155Z,100840.78
2022-11-06T07:46:31.779Z,100830.47
2022-11-06T07:48:58.148Z,100834.16
2022-11-06T07:51:24.568Z,100824.31
2022-11-06T07:53:50.932Z,100810.88
2022-11-06T07:56:17.347Z,100834.63
2022-11-06T07:58:43.729Z,100825.31
2022-11-06T08:01:18.486Z,100826.78
2022-11-06T08:03:45.242Z,100832.78
2022-11-06T08:06:12.044Z,100835.44
2022-11-06T08:08:38.528Z,100826.78
2022-11-06T08:11:07.212Z,100833.03
2022-11-06T08:13:35.078Z,100825.81
2022-11-06T08:16:10.959Z,100826.47
2022-11-06T08:18:37.936Z,100814.75
2022-11-06T08:21:05.240Z,100811.47
2022-11-06T08:23:31.972Z,100806.94
2022-11-06T08:26:00.819Z,100800.22
2022-11-06T08:28:28.041Z,100787.00
2022-11-06T08:30:55.362Z,100799.00
2022-11-06T08:33:22.993Z,100774.47
2022-11-06T08:35:49.426Z,100780.16
2022-11-06T08:38:16.901Z,100780.16
2022-11-06T08:40:43.381Z,100776.44
2022-11-06T08:43:11.075Z,100782.81
2022-11-06T08:45:40.518Z,100776.88
2022-11-06T08:48:08.774Z,100774.84
2022-11-06T08:50:37.174Z,100770.91
2022-11-06T08:53:04.471Z,100773.19
2022-11-06T08:55:31.452Z,100770.16
2022-11-06T08:57:57.861Z,100779.34
2022-11-06T09:00:24.799Z,100773.81
2022-11-06T09:02:51.357Z,100764.81
2022-11-06T09:05:17.712Z,100765.41
2022-11-06T09:07:44.118Z,100748.78
2022-11-06T09:10:10.511Z,100753.53
2022-11-06T09:12:36.915Z,100750.28
2022-11-06T09:15:03.483Z,100752.13
2022-11-06T09:17:29.858Z,100744.69
2022-11-06T09:19:56.270Z,100744.28
2022-11-06T09:22:22.693Z,100753.59
2022-11-06T09:25:03.140Z,100746.59
2022-11-06T09:27:30.386Z,100739.78
2022-11-06T09:29:56.960Z,100745.38
2022-11-06T09:32:24.017Z,100738.63
2022-11-06T09:34:50.781Z,100744.53
2022-11-06T09:37:17.174Z,100732.66
2022-11-06T09:39:43.717Z,100731.63
2022-11-06T09:42:31.488Z,100733.53
2022-11-06T09:45:08.784Z,100720.63
2022-11-06T09:47:41.581Z,100689.69
2022-11-06T09:50:17.128Z,100714.50
2022-11-06T09:52:54.520Z,100704.69
2022-11-06T09:55:30.365Z,100712.94
2022-11-06T09:58:01.715Z,100700.00
2022-11-06T10:00:28.247Z,100695.72
2022-11-06T10:03:00.976Z,100686.44
2022-11-06T10:05:31.183Z,100687.06
2022-11-06T10:08:00.376Z,100685.44
2022-11-06T10:10:51.681Z,100688.28
2022-11-06T10:13:22.734Z,100692.63
2022-11-06T10:16:14.702Z,100684.22
2022-11-06T10:18:58.696Z,100684.84
2022-11-06T10:21:41.810Z,100672.69
2022-11-06T10:24:20.775Z,100684.63
2022-11-06T10:26:57.505Z,100668.81
2022-11-06T10:29:38.921Z,100669.66
2022-11-06T10:32:32.905Z,100664.53
2022-11-06T10:35:37.365Z,100658.78
2022-11-06T10:38:10.045Z,100652.00
2022-11-06T10:40:36.750Z,100654.25
2022-11-06T10:43:34.650Z,100662.06
2022-11-06T10:46:27.967Z,100663.72
2022-11-06T10:49:00.753Z,100629.13
2022-11-06T10:51:43.448Z,100641.25
2022-11-06T10:55:02.329Z,100641.88
2022-11-06T10:57:40.454Z,100622.72
2022-11-06T11:00:11.790Z,100629.53
2022-11-06T11:02:44.580Z,100626.22
2022-11-06T11:05:17.148Z,100633.41
2022-11-06T11:07:45.957Z,100598.44
2022-11-06T11:10:28.035Z,100614.09
2022-11-06T11:12:56.949Z,100581.75
2022-11-06T11:15:25.963Z,100610.75
2022-11-06T11:18:07.428Z,100617.16
2022-11-06T11:20:35.674Z,100605.63
2022-11-06T11:23:06.388Z,100605.63
2022-11-06T11:25:33.289Z,100610.34
2022-11-06T11:28:04.630Z,100611.38
2022-11-06T11:30:31.651Z,100606.44
2022-11-06T11:32:58.565Z,100598.22
2022-11-06T11:35:30.665Z,100592.66
2022-11-06T11:38:07.340Z,100593.31
2022-11-06T11:40:38.618Z,100590.63
2022-11-06T11:43:26.325Z,100572.13
2022-11-06T11:46:17.179Z,100583.22
2022-11-06T11:48:46.490Z,100577.06
2022-11-06T11:51:33.968Z,100568.00
2022-11-06T11:54:05.328Z,100557.72
2022-11-06T11:57:02.337Z,100553.63
2022-11-06T11:59:32.094Z,100552.38
2022-11-06T12:02:16.299Z,100553.63
2022-11-06T12:04:46.762Z,100550.75
2022-11-06T12:07:29.216Z,100535.91
2022-11-06T12:09:56.840Z,100539.84
2022-11-06T12:12:31.323Z,100531.41
2022-11-06T12:15:03.446Z,100521.31
2022-11-06T12:17:31.004Z,100520.72
2022-11-06T12:20:00.151Z,100515.56
2022-11-06T12:22:35.685Z,100513.50
2022-11-06T12:25:16.067Z,100509.81
2022-11-06T12:27:51.167Z,100502.00
2022-11-06T12:30:18.950Z,100503.63
2022-11-06T12:33:10.637Z,100493.78
2022-11-06T12:35:42.539Z,100490.28
2022-11-06T12:38:35.813Z,100494.41
2022-11-06T12:41:15.266Z,100480.84
2022-11-06T12:43:44.594Z,100459.66
2022-11-06T12:46:25.016Z,100477.34
2022-11-06T12:49:33.089Z,100477.75
2022-11-06T12:52:35.259Z,100488.03
2022-11-06T12:55:40.723Z,100487.41
2022-11-06T12:58:29.015Z,100485.16
2022-11-06T13:01:19.333Z,100470.53
2022-11-06T13:04:07.140Z,100482.91
2022-11-06T13:07:00.053Z,100479.81
2022-11-06T13:09:32.186Z,100470.16
2022-11-06T13:12:31.038Z,100470.97
2022-11-06T13:15:19.810Z,100464.19
2022-11-06T13:18:26.552Z,100468.91
2022-11-06T13:21:17.845Z,100463.75
2022-11-06T13:23:50.237Z,100463.13
2022-11-06T13:26:27.412Z,100470.53
2022-11-06T13:28:59.063Z,100458.22
2022-11-06T13:31:35.872Z,100450.19
2022-11-06T13:34:03.855Z,100447.72
2022-11-06T13:36:35.405Z,100437.84
2022-11-06T13:39:18.128Z,100437.63
2022-11-06T13:41:44.599Z,100442.56
2022-11-06T13:44:18.258Z,100440.28
2022-11-06T13:47:03.240Z,100439.09
2022-11-06T13:49:47.752Z,100429.41
2022-11-06T13:52:29.005Z,100421.59
2022-11-06T13:55:07.562Z,100431.88
2022-11-06T13:57:52.782Z,100426.75
2022-11-06T14:00:51.843Z,100431.28
2022-11-06T14:03:52.304Z,100423.25
2022-11-06T14:06:21.818Z,100418.91
2022-11-06T14:08:52.717Z,100391.16
2022-11-06T14:11:36.698Z,100408.66
2022-11-06T14:14:24.268Z,100411.13
2022-11-06T14:17:13.780Z,100395.28
2022-11-06T14:20:01.481Z,100392.00
2022-11-06T14:22:36.273Z,100390.53
2022-11-06T14:25:27.343Z,100389.53
2022-11-06T14:27:53.713Z,100377.81
2022-11-06T14:30:50.127Z,100386.66
2022-11-06T14:33:41.937Z,100383.97
2022-11-06T14:36:23.736Z,100374.13
2022-11-06T14:38:51.373Z,100361.56
2022-11-06T14:41:53.905Z,100371.81
2022-11-06T14:44:30.169Z,100364.63
2022-11-06T14:47:03.085Z,100361.56
2022-11-06T14:49:42.075Z,100344.72
2022-11-06T14:52:12.792Z,100347.59
2022-11-06T14:54:42.813Z,100335.84
2022-11-06T14:57:15.881Z,100345.09
2022-11-06T14:59:43.016Z,100330.28
2022-11-06T15:02:19.291Z,100324.16
2022-11-06T15:05:09.074Z,100300.28
2022-11-06T15:08:10.650Z,100315.09
2022-11-06T15:10:43.007Z,100308.09
2022-11-06T15:13:23.994Z,100303.34
2022-11-06T15:15:55.545Z,100302.09
2022-11-06T15:18:24.376Z,100294.94
2022-11-06T15:20:55.189Z,100289.41
2022-11-06T15:23:26.928Z,100288.63
2022-11-06T15:26:32.309Z,100289.81
2022-11-06T15:29:04.724Z,100277.09
2022-11-06T15:31:32.800Z,100283.63
2022-11-06T15:34:05.653Z,100281.19
2022-11-06T15:36:40.498Z,100271.13
2022-11-06T15:39:37.892Z,100269.22
2022-11-06T15:42:08.836Z,100276.63
2022-11-06T15:44:40.157Z,100253.25
2022-11-06T15:47:22.895Z,100260.81
2022-11-06T15:50:15.493Z,100255.84
2022-11-06T15:52:42.801Z,100254.00
2022-11-06T15:55:32.080Z,100247.47
2022-11-06T15:58:30.420Z,100250.31
2022-11-06T16:00:58.893Z,100246.63
2022-11-06T16:03:28.721Z,100247.22
2022-11-06T16:05:58.642Z,100242.94
2022-11-06T16:08:28.132Z,100239.63
2022-11-06T16:10:55.601Z,100230.34
2022-11-06T16:13:24.895Z,100235.88
2022-11-06T16:16:00.616Z,100222.53
2022-11-06T16:18:32.435Z,100222.72
2022-11-06T16:21:09.379Z,100228.72
2022-11-06T16:23:44.927Z,100228.47
2022-11-06T16:26:15.671Z,100218.81
2022-11-06T16:28:44.229Z,100216.97
2022-11-06T16:31:15.512Z,100211.63
2022-11-06T16:33:54.114Z,100220.03
2022-11-06T16:36:20.615Z,100212.28
2022-11-06T16:38:47.360Z,100200.78
2022-11-06T16:41:39.545Z,100208.13
2022-11-06T16:44:38.497Z,100206.47
2022-11-06T16:47:04.818Z,100210.78
2022-11-06T16:49:33.609Z,100215.47
2022-11-06T16:52:00.282Z,100212.41
2022-11-06T16:54:31.403Z,100224.06
2022-11-06T16:57:09.774Z,100210.50
2022-11-06T16:59:37.289Z,100225.66
2022-11-06T17:02:04.489Z,100222.47
2022-11-06T17:04:31.042Z,100239.97
2022-11-06T17:06:58.561Z,100207.44
2022-11-06T17:09:33.823Z,100181.19
2022-11-06T17:12:01.625Z,100207.88
2022-11-06T17:14:28.306Z,100194.50
2022-11-06T17:17:00.541Z,100213.38
2022-11-06T17:19:28.553Z,100204.34
2022-11-06T17:21:55.564Z,100208.25
2022-11-06T17:24:38.099Z,100207.84
2022-11-06T17:27:05.275Z,100209.88
2022-11-06T17:29:33.512Z,100218.34
2022-11-06T17:31:59.964Z,100203.63
2022-11-06T17:34:26.313Z,100203.81
2022-11-06T17:36:52.883Z,100196.47
2022-11-06T17:39:19.456Z,100200.97
2022-11-06T17:41:45.842Z,100205.66
2022-11-06T17:44:13.082Z,100208.28
2022-11-06T17:46:45.458Z,100210.38
2022-11-06T17:49:18.162Z,100215.94
2022-11-06T17:51:59.699Z,100200.97
2022-11-06T17:54:30.322Z,100213.28
2022-11-06T17:56:56.928Z,100213.47
2022-11-06T17:59:26.594Z,100212.28
2022-11-06T18:01:54.946Z,100211.25
2022-11-06T18:04:23.513Z,100207.59
2022-11-06T18:06:52.162Z,100206.56
2022-11-06T18:09:19.980Z,100211.91
2022-11-06T18:11:49.253Z,100212.53
2022-11-06T18:14:16.113Z,100216.88
2022-11-06T18:16:44.015Z,100216.47
2022-11-06T18:19:16.884Z,100199.84
2022-11-06T18:21:43.452Z,100204.56
2022-11-06T18:24:09.872Z,100198.44
2022-11-06T18:26:37.400Z,100209.50
2022-11-06T18:29:05.501Z,100189.19
2022-11-06T18:31:32.084Z,100184.91
2022-11-06T18:33:58.506Z,100185.91
2022-11-06T18:36:24.986Z,100184.91
2022-11-06T18:38:51.468Z,100178.53
2022-11-06T18:41:20.788Z,100171.38
2022-11-06T18:43:47.343Z,100159.25
2022-11-06T18:46:16.196Z,100158.44
2022-11-06T18:48:44.520Z,100171.38
2022-11-06T18:51:32.381Z,100171.38
2022-11-06T18:54:02.337Z,100166.47
2022-11-06T18:56:29.834Z,100157.44
2022-11-06T18:58:56.643Z,100156.19
2022-11-06T19:01:23.483Z,100158.66
2022-11-06T19:03:50.257Z,100162.56
2022-11-06T19:06:19.077Z,100162.34
2022-11-06T19:08:45.524Z,100177.53
2022-11-06T19:11:15.262Z,100186.00
2022-11-06T19:13:47.565Z,100191.91
2022-11-06T19:16:15.395Z,100182.09
2022-11-06T19:18:41.978Z,100191.91
2022-11-06T19:21:10.878Z,100188.66
2022-11-06T19:23:39.141Z,100178.81
2022-11-06T19:28:58.464Z,100174.31
2022-11-06T19:31:29.156Z,100163.44
2022-11-06T19:33:56.909Z,100178.00
2022-11-06T19:36:25.037Z,100181.47
2022-11-06T19:38:51.669Z,100174.94
2022-11-06T19:41:18.178Z,100163.66
2022-11-06T19:43:44.568Z,100192.38
2022-11-06T19:46:11.101Z,100184.97
2022-11-06T19:48:37.524Z,100187.28
2022-11-06T19:51:08.883Z,100188.06
2022-11-06T19:53:35.296Z,100187.44
2022-11-06T19:56:09.297Z,100203.28
2022-11-06T19:58:36.646Z,100190.72
2022-11-06T20:01:07.937Z,100184.59
2022-11-06T20:03:34.870Z,100191.16
2022-11-06T20:06:06.453Z,100193.63
2022-11-06T20:08:34.383Z,100181.09
2022-11-06T20:11:07.407Z,100186.03
2022-11-06T20:13:36.461Z,100183.78
2022-11-06T20:16:04.499Z,100188.69
2022-11-06T20:18:31.675Z,100189.31
2022-11-06T20:21:06.907Z,100200.41
2022-11-06T20:23:34.086Z,100199.38
2022-11-06T20:26:00.728Z,100195.91
2022-11-06T20:28:27.391Z,100198.16
2022-11-06T20:30:54.277Z,100198.97
2022-11-06T20:33:20.765Z,100183.56
2022-11-06T20:35:47.215Z,100200.41
2022-11-06T20:38:14.611Z,100205.75
2022-11-06T20:40:43.773Z,100211.69
2022-11-06T20:43:10.333Z,100204.13
2022-11-06T20:45:37.471Z,100200.63
2022-11-06T20:48:05.777Z,100201.03
2022-11-06T20:50:32.260Z,100225.84
2022-11-06T20:52:58.820Z,100225.66
2022-11-06T20:55:25.363Z,100216.00
2022-11-06T20:57:52.037Z,100205.94
2022-11-06T21:00:18.845Z,100220.31
2022-11-06T21:02:46.490Z,100241.88
2022-11-06T21:05:14.950Z,100238.38
2022-11-06T21:07:41.913Z,100256.00
2022-11-06T21:10:09.969Z,100257.06
2022-11-06T21:12:36.351Z,100259.94
2022-11-06T21:15:03.013Z,100263.41
2022-11-06T21:17:29.474Z,100254.81
2022-11-06T21:19:55.842Z,100252.72
2022-11-06T21:22:22.208Z,100249.44
2022-11-06T21:24:49.069Z,100260.72
2022-11-06T21:27:15.487Z,100253.56
2022-11-06T21:29:42.027Z,100268.56
2022-11-06T21:32:08.419Z,100273.69
2022-11-06T21:34:34.952Z,100262.19
2022-11-06T21:37:03.050Z,100273.47
2022-11-06T21:39:34.578Z,100269.78
2022-11-06T21:42:02.630Z,100271.41
2022-11-06T21:44:29.026Z,100262.19
2022-11-06T21:46:55.411Z,100275.75
2022-11-06T21:49:21.784Z,100271.81
2022-11-06T21:51:48.161Z,100266.28
2022-11-06T21:54:33.310Z,100266.50
2022-11-06T21:56:59.733Z,100275.72
2022-11-06T21:59:28.344Z,100284.75
2022-11-06T22:01:55.050Z,100313.50
2022-11-06T22:04:21.629Z,100314.31
2022-11-06T22:06:48.029Z,100309.59
2022-11-06T22:09:24.424Z,100308.38
2022-11-06T22:11:51.905Z,100311.28
2022-11-06T22:14:18.424Z,100307.34
2022-11-06T22:16:46.725Z,100309.19
2022-11-06T22:19:14.597Z,100312.31
2022-11-06T22:21:41.665Z,100303.88
2022-11-06T22:24:10.556Z,100306.56
2022-11-06T22:26:37.783Z,100297.53
2022-11-06T22:29:08.576Z,100308.19
2022-11-06T22:31:35.533Z,100306.34
2022-11-06T22:34:02.299Z,100299.97
2022-11-06T22:36:28.746Z,100323.78
2022-11-06T22:38:55.531Z,100323.78
2022-11-06T22:41:24.239Z,100323.56
2022-11-06T22:43:51.892Z,100335.50
2022-11-06T22:46:23.460Z,100321.09
2022-11-06T22:48:51.365Z,100326.66
2022-11-06T22:51:21.257Z,100329.31
2022-11-06T22:53:48.138Z,100329.13
2022-11-06T22:56:14.547Z,100329.53
2022-11-06T22:58:42.637Z,100336.72
2022-11-06T23:01:09.807Z,100312.91
2022-11-06T23:03:36.644Z,100327.91
2022-11-06T23:06:05.737Z,100337.56
2022-11-06T23:08:32.291Z,100324.63
2022-11-06T23:10:59.368Z,100332.41
2022-11-06T23:13:25.873Z,100334.88
2022-11-06T23:16:03.637Z,100351.53
2022-11-06T23:18:30.061Z,100359.13
2022-11-06T23:20:56.634Z,100347.81
2022-11-06T23:23:23.409Z,100347.03
2022-11-06T23:25:49.797Z,100352.56
2022-11-06T23:28:16.357Z,100357.06
2022-11-06T23:30:42.940Z,100356.25
2022-11-06T23:33:09.394Z,100363.25
2022-11-06T23:35:35.985Z,100350.09
2022-11-06T23:38:02.423Z,100358.28
2022-11-06T23:40:28.853Z,100365.09
2022-11-06T23:42:57.148Z,100373.72
2022-11-06T23:45:42.204Z,100356.66
2022-11-06T23:48:15.898Z,100365.50
2022-11-06T23:50:47.089Z,100353.78
2022-11-06T23:53:15.443Z,100372.88
2022-11-06T23:55:42.317Z,100366.50
2022-11-06T23:58:09.020Z,100375.16
